Airport View

Enter AWOS ICAO identifier for current METAR.

ex. KFNL

KHNZ 210125Z AUTO 00000KT 10SM CLR 17/10 A3028 RMK AO2 T01670095

21 Sep 2019 01:27

Frequency: 118.625

Phone: 919-693-9516

Other Area AWOS: KW63 - KTDF - KLHZ - KW78

TAF KRDU 202320Z 2100/2124 22004KT P6SM SCT250